Anastasia Island, Florida
Current Conditions -  °F | °C
As of 12:58 AM on Saturday 01 Nov 2014 (Local Time) from KSGJ Reporting Station
Clear Clear  
Wind Chill: 58°   Ceiling: Unl
Heat Index: 58°   Visibility: 10mi
Dew Point: 48°   Wind: 9mph
Humidity: 70%   Direction: 270°W
Pressure: 29.87"   Gusts: NA
Location:  29.8475°N, 81.2787°W
Report Text: KSGJ 010458Z AUTO 27008KT 10SM CLR 14/09 A2987 RMK AO2 SLP113 T01440089 402390144
Loading
Personal Weather Stations






























Interactive Weather Map
Tropical Storm Tracking
New forecast layout! Learn more

10-Day Weather Forecast

Advertisements
Track Severe Weather on mobile